createdAt,value
2022-11-24T00:01:06.419Z,100929.59
2022-11-24T00:03:33.616Z,100927.16
2022-11-24T00:06:11.177Z,100925.31
2022-11-24T00:08:39.079Z,100923.50
2022-11-24T00:11:10.338Z,100926.16
2022-11-24T00:13:39.342Z,100923.56
2022-11-24T00:16:08.178Z,100928.00
2022-11-24T00:18:35.261Z,100921.09
2022-11-24T00:21:02.256Z,100920.66
2022-11-24T00:23:29.239Z,100934.13
2022-11-24T00:25:56.227Z,100923.25
2022-11-24T00:28:23.238Z,100937.50
2022-11-24T00:30:50.337Z,100936.66
2022-11-24T00:33:17.357Z,100921.53
2022-11-24T00:35:44.397Z,100934.91
2022-11-24T00:38:11.345Z,100927.22
2022-11-24T00:40:38.366Z,100923.00
2022-11-24T00:43:05.374Z,100923.00
2022-11-24T00:45:32.427Z,100924.75
2022-11-24T00:47:59.376Z,100934.91
2022-11-24T00:50:26.384Z,100933.47
2022-11-24T00:52:53.422Z,100938.22
2022-11-24T00:55:20.478Z,100939.16
2022-11-24T00:57:47.442Z,100944.22
2022-11-24T01:00:14.958Z,100944.31
2022-11-24T01:02:42.061Z,100928.22
2022-11-24T01:05:09.249Z,100943.53
2022-11-24T01:07:36.308Z,100933.56
2022-11-24T01:10:03.357Z,100936.13
2022-11-24T01:12:30.345Z,100942.66
2022-11-24T01:14:57.261Z,100928.47
2022-11-24T01:17:24.261Z,100934.91
2022-11-24T01:19:51.617Z,100939.25
2022-11-24T01:22:18.640Z,100938.31
2022-11-24T01:24:46.016Z,100944.31
2022-11-24T01:27:12.938Z,100939.97
2022-11-24T01:29:39.907Z,100949.38
2022-11-24T01:32:06.879Z,100943.38
2022-11-24T01:34:34.049Z,100937.41
2022-11-24T01:37:01.140Z,100945.13
2022-11-24T01:39:28.120Z,100943.47
2022-11-24T01:41:55.218Z,100940.22
2022-11-24T01:44:26.863Z,100954.72
2022-11-24T01:46:58.304Z,100948.69
2022-11-24T01:49:36.144Z,100946.28
2022-11-24T01:52:30.139Z,100945.53
2022-11-24T01:54:58.905Z,100951.44
2022-11-24T01:57:28.001Z,100948.13
2022-11-24T01:59:57.488Z,100938.88
2022-11-24T02:02:25.245Z,100943.00
2022-11-24T02:04:52.306Z,100947.44
2022-11-24T02:07:19.387Z,100953.41
2022-11-24T02:10:01.179Z,100961.16
2022-11-24T02:12:28.196Z,100951.16
2022-11-24T02:14:55.867Z,100956.97
2022-11-24T02:17:22.820Z,100951.09
2022-11-24T02:19:53.856Z,100946.06
2022-11-24T02:22:46.766Z,100956.25
2022-11-24T02:25:36.183Z,100951.97
2022-11-24T02:28:05.702Z,100945.31
2022-11-24T02:30:32.696Z,100952.06
2022-11-24T02:32:59.682Z,100952.91
2022-11-24T02:35:27.657Z,100957.38
2022-11-24T02:37:54.598Z,100960.63
2022-11-24T02:40:25.938Z,100949.78
2022-11-24T02:43:08.159Z,100961.56
2022-11-24T02:45:35.177Z,100954.66
2022-11-24T02:48:02.138Z,100960.63
2022-11-24T02:50:29.135Z,100958.06
2022-11-24T02:52:56.076Z,100940.47
2022-11-24T02:55:23.863Z,100955.41
2022-11-24T02:57:50.848Z,100939.47
2022-11-24T03:00:18.504Z,100934.25
2022-11-24T03:02:45.567Z,100941.91
2022-11-24T03:05:12.741Z,100937.56
2022-11-24T03:07:39.819Z,100929.00
2022-11-24T03:10:07.057Z,100944.09
2022-11-24T03:12:34.396Z,100934.69
2022-11-24T03:15:02.578Z,100927.19
2022-11-24T03:17:29.674Z,100926.66
2022-11-24T03:20:01.455Z,100933.19
2022-11-24T03:22:31.175Z,100929.84
2022-11-24T03:24:58.240Z,100923.94
2022-11-24T03:27:25.299Z,100941.84
2022-11-24T03:29:52.272Z,100941.84
2022-11-24T03:32:19.249Z,100941.31
2022-11-24T03:34:46.175Z,100939.56
2022-11-24T03:37:13.267Z,100947.88
2022-11-24T03:39:40.243Z,100935.09
2022-11-24T03:42:07.256Z,100932.41
2022-11-24T03:44:34.516Z,100936.75
2022-11-24T03:47:01.740Z,100941.84
2022-11-24T03:49:28.716Z,100939.41
2022-11-24T03:51:55.706Z,100940.47
2022-11-24T03:54:22.665Z,100957.31
2022-11-24T03:56:49.720Z,100963.31
2022-11-24T03:59:17.202Z,100970.94
2022-11-24T04:01:44.232Z,100975.28
2022-11-24T04:04:12.076Z,100972.16
2022-11-24T04:06:39.361Z,100983.16
2022-11-24T04:09:06.414Z,100977.31
2022-11-24T04:11:51.736Z,100989.97
2022-11-24T04:14:19.656Z,100999.41
2022-11-24T04:16:46.818Z,101002.06
2022-11-24T04:19:13.784Z,101001.16
2022-11-24T04:21:40.821Z,101009.78
2022-11-24T04:24:07.879Z,101001.47
2022-11-24T04:26:34.897Z,101010.13
2022-11-24T04:29:01.842Z,101016.69
2022-11-24T04:31:28.839Z,101031.34
2022-11-24T04:33:55.843Z,101020.47
2022-11-24T04:36:22.859Z,101019.38
2022-11-24T04:39:25.613Z,101024.53
2022-11-24T04:41:36.719Z,101010.13
2022-11-24T04:44:03.707Z,101009.94
2022-11-24T04:46:30.816Z,101008.22
2022-11-24T04:48:57.821Z,100984.63
2022-11-24T04:51:24.734Z,100998.94
2022-11-24T04:53:51.698Z,100994.84
2022-11-24T04:56:18.616Z,101009.19
2022-11-24T04:58:48.960Z,101008.38
2022-11-24T05:01:15.999Z,100993.41
2022-11-24T05:03:43.079Z,101006.75
2022-11-24T05:06:10.082Z,101015.09
2022-11-24T05:08:37.054Z,101023.00
2022-11-24T05:11:07.428Z,101026.28
2022-11-24T05:13:34.567Z,101028.84
2022-11-24T05:16:01.940Z,101012.06
2022-11-24T05:18:29.145Z,101027.94
2022-11-24T05:20:56.281Z,101032.31
2022-11-24T05:23:23.234Z,101033.09
2022-11-24T05:25:50.252Z,101038.16
2022-11-24T05:28:17.484Z,101041.66
2022-11-24T05:30:44.520Z,101042.56
2022-11-24T05:33:24.890Z,101035.72
2022-11-24T05:35:51.911Z,101026.75
2022-11-24T05:38:18.902Z,101043.69
2022-11-24T05:40:45.934Z,101039.50
2022-11-24T05:43:13.331Z,101045.28
2022-11-24T05:45:40.377Z,101036.78
2022-11-24T05:48:08.974Z,101034.06
2022-11-24T05:50:36.100Z,101029.06
2022-11-24T05:53:07.654Z,101015.63
2022-11-24T05:55:35.055Z,101027.25
2022-11-24T05:58:03.434Z,101022.38
2022-11-24T06:00:30.726Z,101024.88
2022-11-24T06:02:58.147Z,101029.06
2022-11-24T06:05:25.783Z,101019.72
2022-11-24T06:07:52.753Z,101026.56
2022-11-24T06:10:20.224Z,101040.13
2022-11-24T06:12:47.319Z,101034.22
2022-11-24T06:15:14.348Z,101040.19
2022-11-24T06:17:41.183Z,101048.84
2022-11-24T06:20:08.608Z,101043.56
2022-11-24T06:22:35.516Z,101052.06
2022-11-24T06:25:02.349Z,101061.69
2022-11-24T06:27:29.246Z,101066.53
2022-11-24T06:29:56.099Z,101065.69
2022-11-24T06:32:24.288Z,101074.41
2022-11-24T06:34:51.148Z,101064.31
2022-11-24T06:37:18.064Z,101072.50
2022-11-24T06:39:44.913Z,101078.69
2022-11-24T06:42:11.831Z,101072.69
2022-11-24T06:44:38.708Z,101079.66
2022-11-24T06:47:05.713Z,101066.13
2022-11-24T06:49:32.561Z,101082.31
2022-11-24T06:51:59.443Z,101083.16
2022-11-24T06:54:26.396Z,101076.53
2022-11-24T06:56:57.561Z,101086.47
2022-11-24T06:59:24.611Z,101074.78
2022-11-24T07:01:51.462Z,101080.34
2022-11-24T07:04:18.527Z,101083.84
2022-11-24T07:06:45.408Z,101079.50
2022-11-24T07:09:13.032Z,101093.00
2022-11-24T07:11:40.243Z,101093.69
2022-11-24T07:14:07.210Z,101108.09
2022-11-24T07:16:34.278Z,101098.09
2022-11-24T07:19:01.209Z,101111.47
2022-11-24T07:21:28.329Z,101085.06
2022-11-24T07:23:56.392Z,101101.22
2022-11-24T07:26:23.527Z,101115.50
2022-11-24T07:28:50.939Z,101118.75
2022-11-24T07:31:19.771Z,101109.50
2022-11-24T07:33:50.047Z,101117.00
2022-11-24T07:36:17.116Z,101117.75
2022-11-24T07:38:44.007Z,101118.44
2022-11-24T07:41:11.648Z,101116.63
2022-11-24T07:43:38.721Z,101118.31
2022-11-24T07:46:06.791Z,101116.41
2022-11-24T07:48:34.318Z,101114.50
2022-11-24T07:51:04.709Z,101105.94
2022-11-24T07:53:32.371Z,101111.03
2022-11-24T07:56:00.569Z,101099.03
2022-11-24T07:58:33.109Z,101097.66
2022-11-24T08:01:00.647Z,101098.44
2022-11-24T08:03:27.916Z,101105.25
2022-11-24T08:06:22.456Z,101111.94
2022-11-24T08:08:42.959Z,101106.63
2022-11-24T08:11:14.243Z,101120.28
2022-11-24T08:13:41.122Z,101112.53
2022-11-24T08:16:09.859Z,101111.78
2022-11-24T08:18:36.902Z,101137.97
2022-11-24T08:21:03.989Z,101129.31
2022-11-24T08:23:31.108Z,101130.97
2022-11-24T08:26:03.142Z,101131.06
2022-11-24T08:28:30.005Z,101129.25
2022-11-24T08:31:07.730Z,101133.34
2022-11-24T08:33:34.630Z,101132.41
2022-11-24T08:36:08.947Z,101121.94
2022-11-24T08:38:35.844Z,101130.44
2022-11-24T08:41:07.487Z,101113.50
2022-11-24T08:43:34.437Z,101109.03
2022-11-24T08:46:02.247Z,101114.78
2022-11-24T08:48:29.394Z,101110.28
2022-11-24T08:50:57.064Z,101122.91
2022-11-24T08:53:24.161Z,101117.00
2022-11-24T08:55:51.161Z,101134.56
2022-11-24T08:58:18.063Z,101137.09
2022-11-24T09:00:44.956Z,101121.81
2022-11-24T09:03:12.047Z,101136.75
2022-11-24T09:05:54.464Z,101129.00
2022-11-24T09:08:21.365Z,101133.13
2022-11-24T09:10:48.387Z,101126.06
2022-11-24T09:13:15.367Z,101132.63
2022-11-24T09:15:42.257Z,101136.03
2022-11-24T09:18:09.168Z,101146.06
2022-11-24T09:20:36.267Z,101145.00
2022-11-24T09:23:03.174Z,101141.31
2022-11-24T09:25:30.012Z,101148.09
2022-11-24T09:27:57.499Z,101141.78
2022-11-24T09:30:24.497Z,101133.09
2022-11-24T09:32:51.412Z,101149.13
2022-11-24T09:35:18.244Z,101137.16
2022-11-24T09:37:45.910Z,101142.84
2022-11-24T09:40:14.357Z,101138.66
2022-11-24T09:43:11.579Z,101149.38
2022-11-24T09:46:12.008Z,101152.63
2022-11-24T09:48:40.948Z,101139.00
2022-11-24T09:51:12.305Z,101150.69
2022-11-24T09:54:00.799Z,101156.28
2022-11-24T09:56:32.789Z,101145.88
2022-11-24T09:59:07.198Z,101157.81
2022-11-24T10:01:37.919Z,101154.56
2022-11-24T10:04:06.893Z,101160.22
2022-11-24T10:07:00.911Z,101160.91
2022-11-24T10:09:49.006Z,101161.56
2022-11-24T10:12:53.389Z,101165.66
2022-11-24T10:15:42.517Z,101154.94
2022-11-24T10:18:24.586Z,101150.25
2022-11-24T10:21:28.785Z,101143.91
2022-11-24T10:24:12.916Z,101148.81
2022-11-24T10:26:41.083Z,101142.75
2022-11-24T10:29:27.024Z,101136.63
2022-11-24T10:31:55.247Z,101147.31
2022-11-24T10:34:51.351Z,101153.97
2022-11-24T10:37:30.789Z,101148.88
2022-11-24T10:40:59.585Z,101155.81
2022-11-24T10:43:28.504Z,101141.97
2022-11-24T10:45:59.712Z,101157.25
2022-11-24T10:48:27.825Z,101144.75
2022-11-24T10:51:26.527Z,101152.59
2022-11-24T10:53:53.645Z,101150.34
2022-11-24T10:56:20.484Z,101157.19
2022-11-24T10:58:47.395Z,101154.59
2022-11-24T11:01:14.363Z,101148.75
2022-11-24T11:03:55.521Z,101144.59
2022-11-24T11:06:26.146Z,101157.53
2022-11-24T11:09:14.765Z,101147.16
2022-11-24T11:11:43.085Z,101143.84
2022-11-24T11:14:11.033Z,101136.69
2022-11-24T11:16:52.303Z,101134.59
2022-11-24T11:19:49.046Z,101141.25
2022-11-24T11:22:30.428Z,101129.41
2022-11-24T11:25:15.757Z,101135.00
2022-11-24T11:27:42.722Z,101141.66
2022-11-24T11:36:23.265Z,101153.09
2022-11-24T11:38:50.133Z,101155.78
2022-11-24T11:41:22.244Z,101151.88
2022-11-24T11:43:51.482Z,101143.34
2022-11-24T11:46:18.519Z,101147.69
2022-11-24T11:48:47.079Z,101142.41
2022-11-24T11:51:33.012Z,101151.63
2022-11-24T11:54:26.188Z,101159.22
2022-11-24T11:57:11.770Z,101144.59
2022-11-24T12:00:18.349Z,101159.78
2022-11-24T12:03:15.643Z,101161.38
2022-11-24T12:06:04.199Z,101160.38
2022-11-24T12:12:17.231Z,101170.63
2022-11-24T12:15:25.226Z,101175.91
2022-11-24T12:17:55.676Z,101170.72
2022-11-24T12:20:51.737Z,101174.16
2022-11-24T12:23:36.825Z,101165.44
2022-11-24T12:26:24.834Z,101144.84
2022-11-24T12:29:00.426Z,101167.22
2022-11-24T12:31:39.485Z,101163.13
2022-11-24T12:34:30.045Z,101169.22
2022-11-24T12:37:19.841Z,101164.28
2022-11-24T12:39:55.811Z,101155.47
2022-11-24T12:43:13.541Z,101160.47
2022-11-24T12:45:59.338Z,101159.81
2022-11-24T12:48:35.725Z,101166.06
2022-11-24T12:51:04.109Z,101156.88
2022-11-24T12:53:34.423Z,101145.25
2022-11-24T12:56:14.809Z,101156.53
2022-11-24T12:58:41.665Z,101146.53
2022-11-24T13:01:16.118Z,101154.53
2022-11-24T13:04:05.430Z,101150.09
2022-11-24T13:06:37.980Z,101171.56
2022-11-24T13:09:09.532Z,101161.69
2022-11-24T13:11:47.291Z,101176.63
2022-11-24T13:14:22.439Z,101177.84
2022-11-24T13:17:21.153Z,101190.69
2022-11-24T13:19:37.080Z,101177.34
2022-11-24T13:22:07.897Z,101191.81
2022-11-24T13:24:36.918Z,101191.16
2022-11-24T13:27:27.780Z,101190.41
2022-11-24T13:29:54.730Z,101186.47
2022-11-24T13:32:21.562Z,101196.72
2022-11-24T13:34:55.114Z,101189.06
2022-11-24T13:37:34.985Z,101197.72
2022-11-24T13:40:17.150Z,101190.13
2022-11-24T13:43:00.434Z,101209.97
2022-11-24T13:45:40.459Z,101207.59
2022-11-24T13:48:19.868Z,101210.34
2022-11-24T13:50:49.629Z,101208.75
2022-11-24T13:53:47.683Z,101209.75
2022-11-24T13:56:17.316Z,101219.25
2022-11-24T13:58:44.461Z,101210.72
2022-11-24T14:01:26.872Z,101209.97
2022-11-24T14:04:30.505Z,101217.88
2022-11-24T14:07:07.050Z,101212.03
2022-11-24T14:09:53.122Z,101203.81
2022-11-24T14:12:21.352Z,101205.34
2022-11-24T14:14:52.293Z,101219.84
2022-11-24T14:17:23.696Z,101217.59
2022-11-24T14:19:52.360Z,101217.50
2022-11-24T14:22:40.291Z,101224.47
2022-11-24T14:25:08.802Z,101233.13
2022-11-24T14:27:37.954Z,101224.84
2022-11-24T14:30:17.606Z,101230.84
2022-11-24T14:33:03.473Z,101228.13
2022-11-24T14:35:31.867Z,101223.19
2022-11-24T14:38:02.560Z,101236.69
2022-11-24T14:40:51.404Z,101241.94
2022-11-24T14:43:32.854Z,101238.72
2022-11-24T14:46:07.367Z,101248.03
2022-11-24T14:48:38.405Z,101243.84
2022-11-24T14:51:15.774Z,101253.34
2022-11-24T14:53:43.321Z,101249.06
2022-11-24T14:56:21.917Z,101247.53
2022-11-24T14:58:48.700Z,101250.13
2022-11-24T15:01:21.551Z,101259.47
2022-11-24T15:04:32.537Z,101264.72
2022-11-24T15:07:24.186Z,101261.38
2022-11-24T15:09:52.379Z,101250.72
2022-11-24T15:12:39.533Z,101264.25
2022-11-24T15:15:20.536Z,101267.81
2022-11-24T15:17:51.606Z,101260.22
2022-11-24T15:20:30.766Z,101251.66
2022-11-24T15:23:22.174Z,101278.97
2022-11-24T15:25:50.450Z,101279.88
2022-11-24T15:28:17.237Z,101279.94
2022-11-24T15:30:44.068Z,101277.66
2022-11-24T15:33:15.731Z,101276.00
2022-11-24T15:35:42.665Z,101281.00
2022-11-24T15:38:09.917Z,101279.53
2022-11-24T15:40:40.324Z,101283.19
2022-11-24T15:43:29.009Z,101283.88
2022-11-24T15:45:55.966Z,101275.34
2022-11-24T15:48:22.721Z,101282.25
2022-11-24T15:50:49.833Z,101277.19
2022-11-24T15:53:25.807Z,101284.16
2022-11-24T15:55:52.760Z,101285.84
2022-11-24T15:58:19.624Z,101291.88
2022-11-24T16:00:46.643Z,101275.03
2022-11-24T16:03:45.282Z,101291.88
2022-11-24T16:06:00.247Z,101291.16
2022-11-24T16:08:27.201Z,101277.69
2022-11-24T16:10:54.064Z,101285.34
2022-11-24T16:13:20.868Z,101286.13
2022-11-24T16:15:47.705Z,101286.13
2022-11-24T16:18:14.584Z,101281.94
2022-11-24T16:20:41.368Z,101277.03
2022-11-24T16:23:08.145Z,101287.03
2022-11-24T16:25:35.023Z,101283.81
2022-11-24T16:28:01.860Z,101263.66
2022-11-24T16:30:28.744Z,101293.88
2022-11-24T16:32:55.528Z,101294.69
2022-11-24T16:35:22.402Z,101304.19
2022-11-24T16:37:49.265Z,101302.53
2022-11-24T16:40:16.303Z,101297.53
2022-11-24T16:42:43.121Z,101297.41
2022-11-24T16:45:12.062Z,101292.38
2022-11-24T16:47:40.196Z,101299.06
2022-11-24T16:50:08.549Z,101299.16
2022-11-24T16:52:35.392Z,101304.31
2022-11-24T16:55:02.339Z,101297.41
2022-11-24T16:57:29.413Z,101303.41
2022-11-24T16:59:56.218Z,101284.78
2022-11-24T17:02:23.296Z,101297.41
2022-11-24T17:04:52.528Z,101301.03
2022-11-24T17:07:20.471Z,101305.16
2022-11-24T17:09:47.387Z,101291.63
2022-11-24T17:12:14.200Z,101300.00
2022-11-24T17:14:41.024Z,101296.72
2022-11-24T17:17:07.878Z,101282.28
2022-11-24T17:19:34.671Z,101294.91
2022-11-24T17:22:01.549Z,101306.81
2022-11-24T17:24:28.465Z,101314.56
2022-11-24T17:26:55.320Z,101315.44
2022-11-24T17:29:22.175Z,101318.84
2022-11-24T17:31:49.173Z,101314.56
2022-11-24T17:34:16.123Z,101309.56
2022-11-24T17:36:45.942Z,101312.84
2022-11-24T17:39:12.786Z,101314.56
2022-11-24T17:41:39.683Z,101312.06
2022-11-24T17:44:08.708Z,101317.22
2022-11-24T17:46:37.202Z,101323.44
2022-11-24T17:49:04.133Z,101329.28
2022-11-24T17:51:31.014Z,101335.28
2022-11-24T17:53:57.940Z,101339.75
2022-11-24T17:56:27.196Z,101330.25
2022-11-24T17:58:55.292Z,101331.41
2022-11-24T18:01:22.672Z,101344.78
2022-11-24T18:03:53.429Z,101344.81
2022-11-24T18:06:21.147Z,101355.94
2022-11-24T18:08:48.446Z,101353.47
2022-11-24T18:11:27.350Z,101357.94
2022-11-24T18:14:00.944Z,101358.59
2022-11-24T18:16:30.563Z,101358.78
2022-11-24T18:19:12.084Z,101352.88
2022-11-24T18:21:42.391Z,101365.63
2022-11-24T18:24:09.877Z,101372.50
2022-11-24T18:26:36.923Z,101369.06
2022-11-24T18:29:04.303Z,101379.16
2022-11-24T18:31:32.387Z,101370.63
2022-11-24T18:33:59.434Z,101380.81
2022-11-24T18:36:30.293Z,101386.81
2022-11-24T18:38:59.986Z,101386.91
2022-11-24T18:41:27.298Z,101386.97
2022-11-24T18:43:54.077Z,101392.13
2022-11-24T18:46:20.945Z,101395.59
2022-11-24T18:48:47.844Z,101387.25
2022-11-24T18:51:14.881Z,101385.38
2022-11-24T18:53:42.481Z,101386.97
2022-11-24T18:56:12.462Z,101380.06
2022-11-24T18:58:39.262Z,101382.69
2022-11-24T19:01:09.682Z,101379.41
2022-11-24T19:03:41.336Z,101387.88
2022-11-24T19:06:11.739Z,101382.69
2022-11-24T19:08:38.930Z,101376.91
2022-11-24T19:11:05.977Z,101383.53
2022-11-24T19:13:32.906Z,101377.53
2022-11-24T19:16:00.442Z,101381.03
2022-11-24T19:18:29.326Z,101373.22
2022-11-24T19:20:57.552Z,101376.66
2022-11-24T19:23:24.408Z,101386.97
2022-11-24T19:25:51.215Z,101386.06
2022-11-24T19:28:18.105Z,101384.44
2022-11-24T19:30:45.478Z,101387.72
2022-11-24T19:33:12.285Z,101393.72
2022-11-24T19:35:39.029Z,101393.69
2022-11-24T19:38:05.865Z,101398.75
2022-11-24T19:40:32.681Z,101388.66
2022-11-24T19:42:59.615Z,101394.56
2022-11-24T19:45:26.543Z,101402.94
2022-11-24T19:47:53.319Z,101396.88
2022-11-24T19:50:20.247Z,101390.97
2022-11-24T19:52:48.001Z,101392.75
2022-11-24T19:55:15.003Z,101398.53
2022-11-24T19:57:41.851Z,101391.84
2022-11-24T20:00:09.764Z,101409.66
2022-11-24T20:02:36.653Z,101404.41
2022-11-24T20:05:03.608Z,101394.25
2022-11-24T20:07:30.521Z,101402.69
2022-11-24T20:09:57.423Z,101397.56
2022-11-24T20:12:24.347Z,101404.34
2022-11-24T20:14:51.133Z,101409.50
2022-11-24T20:17:18.002Z,101405.19
2022-11-24T20:19:44.961Z,101413.63
2022-11-24T20:22:11.789Z,101411.97
2022-11-24T20:24:38.863Z,101416.22
2022-11-24T20:27:05.724Z,101414.53
2022-11-24T20:29:33.994Z,101396.88
2022-11-24T20:32:00.890Z,101412.78
2022-11-24T20:34:28.540Z,101411.03
2022-11-24T20:36:55.502Z,101413.63
2022-11-24T20:39:25.589Z,101417.00
2022-11-24T20:41:52.810Z,101398.53
2022-11-24T20:44:21.424Z,101423.81
2022-11-24T20:46:48.486Z,101424.09
2022-11-24T20:49:19.122Z,101420.75
2022-11-24T20:51:47.928Z,101438.47
2022-11-24T20:54:16.121Z,101437.78
2022-11-24T20:56:43.593Z,101451.44
2022-11-24T20:59:12.622Z,101454.78
2022-11-24T21:01:41.073Z,101454.72
2022-11-24T21:04:09.603Z,101437.94
2022-11-24T21:06:36.640Z,101453.19
2022-11-24T21:09:04.437Z,101465.91
2022-11-24T21:11:31.640Z,101468.50
2022-11-24T21:13:58.646Z,101469.31
2022-11-24T21:16:29.617Z,101460.75
2022-11-24T21:18:58.028Z,101464.06
2022-11-24T21:21:25.549Z,101457.25
2022-11-24T21:23:52.442Z,101443.78
2022-11-24T21:26:19.467Z,101461.44
2022-11-24T21:28:47.099Z,101466.59
2022-11-24T21:31:18.629Z,101467.34
2022-11-24T21:33:47.006Z,101458.16
2022-11-24T21:36:14.827Z,101459.69
2022-11-24T21:38:42.765Z,101449.63
2022-11-24T21:41:10.411Z,101450.53
2022-11-24T21:43:37.423Z,101455.63
2022-11-24T21:46:06.031Z,101448.81
2022-11-24T21:48:33.433Z,101467.34
2022-11-24T21:51:01.319Z,101460.44
2022-11-24T21:53:30.846Z,101458.00
2022-11-24T21:55:58.557Z,101457.88
2022-11-24T21:58:25.693Z,101454.31
2022-11-24T22:00:52.774Z,101462.97
2022-11-24T22:03:19.621Z,101456.97
2022-11-24T22:05:56.488Z,101462.84
2022-11-24T22:08:23.817Z,101465.44
2022-11-24T22:10:50.658Z,101462.84
2022-11-24T22:13:17.474Z,101459.56
2022-11-24T22:15:44.350Z,101466.19
2022-11-24T22:18:11.168Z,101472.19
2022-11-24T22:20:38.308Z,101462.16
2022-11-24T22:23:05.151Z,101466.41
2022-11-24T22:25:31.888Z,101477.28
2022-11-24T22:27:58.627Z,101477.22
2022-11-24T22:30:25.329Z,101462.06
2022-11-24T22:32:53.358Z,101469.47
2022-11-24T22:35:20.099Z,101470.38
2022-11-24T22:37:46.852Z,101466.88
2022-11-24T22:40:13.718Z,101467.66
2022-11-24T22:42:40.416Z,101468.50
2022-11-24T22:45:07.948Z,101461.03
2022-11-24T22:47:34.688Z,101462.41
2022-11-24T22:50:01.455Z,101457.25
2022-11-24T22:52:28.185Z,101442.50
2022-11-24T22:54:54.933Z,101461.66
2022-11-24T22:57:21.680Z,101471.84
2022-11-24T22:59:48.468Z,101472.75
2022-11-24T23:02:15.229Z,101472.69
2022-11-24T23:04:42.003Z,101474.38
2022-11-24T23:07:09.730Z,101451.59
2022-11-24T23:09:36.512Z,101471.00
2022-11-24T23:12:03.406Z,101470.88
2022-11-24T23:14:30.218Z,101481.19
2022-11-24T23:16:57.012Z,101460.75
2022-11-24T23:19:23.798Z,101472.69
2022-11-24T23:21:50.632Z,101460.81
2022-11-24T23:24:17.497Z,101475.28
2022-11-24T23:26:44.297Z,101476.16
2022-11-24T23:29:11.682Z,101460.25
2022-11-24T23:31:40.329Z,101472.00
2022-11-24T23:34:07.342Z,101484.81
2022-11-24T23:36:34.156Z,101485.75
2022-11-24T23:39:08.764Z,101478.81
2022-11-24T23:41:35.599Z,101484.81
2022-11-24T23:44:02.590Z,101490.00
2022-11-24T23:46:29.425Z,101490.00
2022-11-24T23:48:56.369Z,101491.75
2022-11-24T23:51:30.498Z,101478.25
2022-11-24T23:56:41.854Z,101493.50
2022-11-24T23:59:10.318Z,101483.28
